sensor_id;sensor_type;location;lat;lon;timestamp;P1;durP1;ratioP1;P2;durP2;ratioP2
24619;SDS011;12763;55.802;37.404;2022-10-15T00:01:41;10.48;;;5.43;;
24619;SDS011;12763;55.802;37.404;2022-10-15T00:04:08;13.80;;;5.93;;
24619;SDS011;12763;55.802;37.404;2022-10-15T00:06:34;15.55;;;7.68;;
24619;SDS011;12763;55.802;37.404;2022-10-15T00:09:00;13.52;;;7.40;;
24619;SDS011;12763;55.802;37.404;2022-10-15T00:11:30;13.80;;;6.97;;
24619;SDS011;12763;55.802;37.404;2022-10-15T00:13:57;14.77;;;7.40;;
24619;SDS011;12763;55.802;37.404;2022-10-15T00:16:27;20.02;;;6.72;;
24619;SDS011;12763;55.802;37.404;2022-10-15T00:19:00;19.50;;;7.20;;
24619;SDS011;12763;55.802;37.404;2022-10-15T00:21:27;14.65;;;6.65;;
24619;SDS011;12763;55.802;37.404;2022-10-15T00:23:54;14.95;;;7.05;;
24619;SDS011;12763;55.802;37.404;2022-10-15T00:26:25;17.27;;;7.47;;
24619;SDS011;12763;55.802;37.404;2022-10-15T00:28:57;14.48;;;7.03;;
24619;SDS011;12763;55.802;37.404;2022-10-15T00:31:28;11.15;;;6.65;;
24619;SDS011;12763;55.802;37.404;2022-10-15T00:34:00;14.38;;;7.70;;
24619;SDS011;12763;55.802;37.404;2022-10-15T00:36:30;15.70;;;7.65;;
24619;SDS011;12763;55.802;37.404;2022-10-15T00:39:03;14.40;;;6.13;;
24619;SDS011;12763;55.802;37.404;2022-10-15T00:41:32;13.88;;;6.45;;
24619;SDS011;12763;55.802;37.404;2022-10-15T00:44:41;16.92;;;6.82;;
24619;SDS011;12763;55.802;37.404;2022-10-15T00:46:48;13.05;;;6.55;;
24619;SDS011;12763;55.802;37.404;2022-10-15T00:49:36;13.25;;;6.50;;
24619;SDS011;12763;55.802;37.404;2022-10-15T00:52:18;13.55;;;6.35;;
24619;SDS011;12763;55.802;37.404;2022-10-15T00:54:49;13.90;;;6.45;;
24619;SDS011;12763;55.802;37.404;2022-10-15T00:57:22;12.68;;;6.13;;
24619;SDS011;12763;55.802;37.404;2022-10-15T00:59:50;16.15;;;7.00;;
24619;SDS011;12763;55.802;37.404;2022-10-15T01:02:22;15.20;;;7.20;;
24619;SDS011;12763;55.802;37.404;2022-10-15T01:04:51;13.48;;;7.65;;
24619;SDS011;12763;55.802;37.404;2022-10-15T01:07:33;14.57;;;7.38;;
24619;SDS011;12763;55.802;37.404;2022-10-15T01:10:09;14.98;;;6.63;;
24619;SDS011;12763;55.802;37.404;2022-10-15T01:18:21;14.45;;;7.47;;
24619;SDS011;12763;55.802;37.404;2022-10-15T01:21:08;13.55;;;7.15;;
24619;SDS011;12763;55.802;37.404;2022-10-15T01:23:51;10.70;;;6.50;;
24619;SDS011;12763;55.802;37.404;2022-10-15T01:27:00;14.30;;;6.90;;
24619;SDS011;12763;55.802;37.404;2022-10-15T01:32:37;13.82;;;6.47;;
24619;SDS011;12763;55.802;37.404;2022-10-15T01:38:36;15.15;;;6.80;;
24619;SDS011;12763;55.802;37.404;2022-10-15T01:41:30;11.40;;;5.95;;
24619;SDS011;12763;55.802;37.404;2022-10-15T01:44:26;13.77;;;6.90;;
24619;SDS011;12763;55.802;37.404;2022-10-15T01:47:23;15.95;;;6.90;;
24619;SDS011;12763;55.802;37.404;2022-10-15T01:50:21;15.25;;;6.72;;
24619;SDS011;12763;55.802;37.404;2022-10-15T01:52:51;13.60;;;6.43;;
24619;SDS011;12763;55.802;37.404;2022-10-15T01:55:27;15.65;;;6.45;;
24619;SDS011;12763;55.802;37.404;2022-10-15T01:57:56;16.10;;;7.28;;
24619;SDS011;12763;55.802;37.404;2022-10-15T02:00:25;13.10;;;7.03;;
24619;SDS011;12763;55.802;37.404;2022-10-15T02:02:58;16.30;;;6.25;;
24619;SDS011;12763;55.802;37.404;2022-10-15T02:05:39;13.70;;;6.45;;
24619;SDS011;12763;55.802;37.404;2022-10-15T02:08:55;14.40;;;6.70;;
24619;SDS011;12763;55.802;37.404;2022-10-15T02:11:25;11.35;;;6.50;;
24619;SDS011;12763;55.802;37.404;2022-10-15T02:19:20;12.95;;;7.18;;
24619;SDS011;12763;55.802;37.404;2022-10-15T02:24:49;14.07;;;7.25;;
24619;SDS011;12763;55.802;37.404;2022-10-15T02:27:25;13.15;;;6.95;;
24619;SDS011;12763;55.802;37.404;2022-10-15T02:29:53;14.38;;;7.05;;
24619;SDS011;12763;55.802;37.404;2022-10-15T02:32:23;19.85;;;6.30;;
24619;SDS011;12763;55.802;37.404;2022-10-15T02:34:53;13.35;;;6.22;;
24619;SDS011;12763;55.802;37.404;2022-10-15T02:37:25;12.10;;;6.20;;
24619;SDS011;12763;55.802;37.404;2022-10-15T02:39:57;13.98;;;6.32;;
24619;SDS011;12763;55.802;37.404;2022-10-15T02:42:36;10.98;;;6.38;;
24619;SDS011;12763;55.802;37.404;2022-10-15T02:45:06;11.77;;;5.47;;
24619;SDS011;12763;55.802;37.404;2022-10-15T02:47:36;10.48;;;6.47;;
24619;SDS011;12763;55.802;37.404;2022-10-15T02:50:02;16.38;;;6.50;;
24619;SDS011;12763;55.802;37.404;2022-10-15T02:52:33;11.40;;;6.20;;
24619;SDS011;12763;55.802;37.404;2022-10-15T02:55:02;12.30;;;6.60;;
24619;SDS011;12763;55.802;37.404;2022-10-15T02:57:30;12.38;;;6.45;;
24619;SDS011;12763;55.802;37.404;2022-10-15T02:59:59;9.38;;;5.97;;
24619;SDS011;12763;55.802;37.404;2022-10-15T03:02:29;10.35;;;6.03;;
24619;SDS011;12763;55.802;37.404;2022-10-15T03:05:01;13.65;;;6.20;;
24619;SDS011;12763;55.802;37.404;2022-10-15T03:07:28;10.18;;;6.15;;
24619;SDS011;12763;55.802;37.404;2022-10-15T03:09:57;11.98;;;6.25;;
24619;SDS011;12763;55.802;37.404;2022-10-15T03:12:24;12.30;;;6.68;;
24619;SDS011;12763;55.802;37.404;2022-10-15T03:15:10;10.50;;;5.93;;
24619;SDS011;12763;55.802;37.404;2022-10-15T03:17:58;9.10;;;5.63;;
24619;SDS011;12763;55.802;37.404;2022-10-15T03:20:24;11.25;;;6.38;;
24619;SDS011;12763;55.802;37.404;2022-10-15T03:22:51;9.23;;;5.82;;
24619;SDS011;12763;55.802;37.404;2022-10-15T03:25:18;9.63;;;5.25;;
24619;SDS011;12763;55.802;37.404;2022-10-15T03:27:52;12.98;;;6.47;;
24619;SDS011;12763;55.802;37.404;2022-10-15T03:30:28;9.52;;;5.78;;
24619;SDS011;12763;55.802;37.404;2022-10-15T03:33:01;12.35;;;6.03;;
24619;SDS011;12763;55.802;37.404;2022-10-15T03:35:31;13.07;;;5.93;;
24619;SDS011;12763;55.802;37.404;2022-10-15T03:38:01;7.97;;;5.68;;
24619;SDS011;12763;55.802;37.404;2022-10-15T03:40:28;10.65;;;6.45;;
24619;SDS011;12763;55.802;37.404;2022-10-15T03:43:00;8.35;;;5.28;;
24619;SDS011;12763;55.802;37.404;2022-10-15T03:45:36;10.73;;;5.05;;
24619;SDS011;12763;55.802;37.404;2022-10-15T03:48:15;12.30;;;6.07;;
24619;SDS011;12763;55.802;37.404;2022-10-15T03:50:45;9.70;;;4.70;;
24619;SDS011;12763;55.802;37.404;2022-10-15T03:53:13;10.30;;;6.03;;
24619;SDS011;12763;55.802;37.404;2022-10-15T03:55:39;10.88;;;5.25;;
24619;SDS011;12763;55.802;37.404;2022-10-15T03:58:07;15.95;;;6.05;;
24619;SDS011;12763;55.802;37.404;2022-10-15T04:00:44;9.38;;;5.60;;
24619;SDS011;12763;55.802;37.404;2022-10-15T04:03:14;10.77;;;6.18;;
24619;SDS011;12763;55.802;37.404;2022-10-15T04:05:41;8.82;;;5.88;;
24619;SDS011;12763;55.802;37.404;2022-10-15T04:08:17;10.57;;;6.03;;
24619;SDS011;12763;55.802;37.404;2022-10-15T04:10:44;10.38;;;6.07;;
24619;SDS011;12763;55.802;37.404;2022-10-15T04:13:11;11.63;;;6.07;;
24619;SDS011;12763;55.802;37.404;2022-10-15T04:15:42;8.15;;;5.15;;
24619;SDS011;12763;55.802;37.404;2022-10-15T04:18:12;12.20;;;5.82;;
24619;SDS011;12763;55.802;37.404;2022-10-15T04:20:39;13.27;;;6.00;;
24619;SDS011;12763;55.802;37.404;2022-10-15T04:23:21;14.25;;;6.15;;
24619;SDS011;12763;55.802;37.404;2022-10-15T04:26:11;13.05;;;5.88;;
24619;SDS011;12763;55.802;37.404;2022-10-15T04:28:41;9.55;;;5.82;;
24619;SDS011;12763;55.802;37.404;2022-10-15T04:31:08;11.73;;;6.53;;
24619;SDS011;12763;55.802;37.404;2022-10-15T04:33:38;9.95;;;6.05;;
24619;SDS011;12763;55.802;37.404;2022-10-15T04:36:09;12.95;;;6.70;;
24619;SDS011;12763;55.802;37.404;2022-10-15T04:39:05;14.18;;;6.43;;
24619;SDS011;12763;55.802;37.404;2022-10-15T04:41:38;14.63;;;6.10;;
24619;SDS011;12763;55.802;37.404;2022-10-15T04:44:12;13.70;;;6.28;;
24619;SDS011;12763;55.802;37.404;2022-10-15T04:46:50;16.15;;;7.15;;
24619;SDS011;12763;55.802;37.404;2022-10-15T04:49:37;10.35;;;6.50;;
24619;SDS011;12763;55.802;37.404;2022-10-15T04:52:12;13.63;;;6.40;;
24619;SDS011;12763;55.802;37.404;2022-10-15T04:54:49;11.23;;;5.60;;
24619;SDS011;12763;55.802;37.404;2022-10-15T04:57:17;10.75;;;5.90;;
24619;SDS011;12763;55.802;37.404;2022-10-15T04:59:48;13.93;;;6.65;;
24619;SDS011;12763;55.802;37.404;2022-10-15T05:02:41;18.70;;;6.70;;
24619;SDS011;12763;55.802;37.404;2022-10-15T05:05:43;12.02;;;6.45;;
24619;SDS011;12763;55.802;37.404;2022-10-15T05:08:14;14.38;;;7.78;;
24619;SDS011;12763;55.802;37.404;2022-10-15T05:11:34;19.98;;;8.60;;
24619;SDS011;12763;55.802;37.404;2022-10-15T05:14:11;37.05;;;18.83;;
24619;SDS011;12763;55.802;37.404;2022-10-15T05:16:41;44.42;;;22.42;;
24619;SDS011;12763;55.802;37.404;2022-10-15T05:19:13;48.72;;;24.70;;
24619;SDS011;12763;55.802;37.404;2022-10-15T05:21:49;61.75;;;30.10;;
24619;SDS011;12763;55.802;37.404;2022-10-15T05:24:22;44.25;;;25.98;;
24619;SDS011;12763;55.802;37.404;2022-10-15T05:27:08;49.55;;;23.05;;
24619;SDS011;12763;55.802;37.404;2022-10-15T05:29:41;46.60;;;25.80;;
24619;SDS011;12763;55.802;37.404;2022-10-15T05:32:08;44.30;;;25.85;;
24619;SDS011;12763;55.802;37.404;2022-10-15T05:34:41;35.10;;;21.23;;
24619;SDS011;12763;55.802;37.404;2022-10-15T05:37:18;28.50;;;16.00;;
24619;SDS011;12763;55.802;37.404;2022-10-15T05:39:50;25.70;;;13.63;;
24619;SDS011;12763;55.802;37.404;2022-10-15T05:42:22;18.73;;;8.85;;
24619;SDS011;12763;55.802;37.404;2022-10-15T05:45:03;15.68;;;6.95;;
24619;SDS011;12763;55.802;37.404;2022-10-15T05:47:33;14.27;;;7.43;;
24619;SDS011;12763;55.802;37.404;2022-10-15T05:50:16;9.43;;;6.43;;
24619;SDS011;12763;55.802;37.404;2022-10-15T05:52:47;10.38;;;5.57;;
24619;SDS011;12763;55.802;37.404;2022-10-15T05:55:46;8.88;;;5.20;;
24619;SDS011;12763;55.802;37.404;2022-10-15T05:58:19;12.00;;;6.30;;
24619;SDS011;12763;55.802;37.404;2022-10-15T06:00:56;11.80;;;5.65;;
24619;SDS011;12763;55.802;37.404;2022-10-15T06:03:30;12.93;;;6.15;;
24619;SDS011;12763;55.802;37.404;2022-10-15T06:05:57;13.82;;;5.47;;
24619;SDS011;12763;55.802;37.404;2022-10-15T06:08:31;8.52;;;4.80;;
24619;SDS011;12763;55.802;37.404;2022-10-15T06:11:18;9.63;;;4.90;;
24619;SDS011;12763;55.802;37.404;2022-10-15T06:13:52;9.15;;;4.57;;
24619;SDS011;12763;55.802;37.404;2022-10-15T06:16:40;12.35;;;5.22;;
24619;SDS011;12763;55.802;37.404;2022-10-15T06:19:41;8.93;;;4.72;;
24619;SDS011;12763;55.802;37.404;2022-10-15T06:22:08;9.80;;;4.60;;
24619;SDS011;12763;55.802;37.404;2022-10-15T06:24:43;8.75;;;4.35;;
24619;SDS011;12763;55.802;37.404;2022-10-15T06:27:16;8.18;;;4.47;;
24619;SDS011;12763;55.802;37.404;2022-10-15T06:30:15;8.13;;;4.57;;
24619;SDS011;12763;55.802;37.404;2022-10-15T06:32:51;6.55;;;4.20;;
24619;SDS011;12763;55.802;37.404;2022-10-15T06:35:18;7.97;;;4.43;;
24619;SDS011;12763;55.802;37.404;2022-10-15T06:37:47;7.43;;;4.35;;
24619;SDS011;12763;55.802;37.404;2022-10-15T06:40:17;11.80;;;4.93;;
24619;SDS011;12763;55.802;37.404;2022-10-15T06:42:44;10.95;;;4.22;;
24619;SDS011;12763;55.802;37.404;2022-10-15T06:45:19;9.32;;;5.07;;
24619;SDS011;12763;55.802;37.404;2022-10-15T06:47:53;8.25;;;3.80;;
24619;SDS011;12763;55.802;37.404;2022-10-15T06:50:26;7.38;;;4.03;;
24619;SDS011;12763;55.802;37.404;2022-10-15T06:52:58;7.85;;;4.70;;
24619;SDS011;12763;55.802;37.404;2022-10-15T06:55:28;9.48;;;4.60;;
24619;SDS011;12763;55.802;37.404;2022-10-15T06:57:55;10.88;;;5.13;;
24619;SDS011;12763;55.802;37.404;2022-10-15T07:00:25;10.10;;;4.75;;
24619;SDS011;12763;55.802;37.404;2022-10-15T07:03:01;7.93;;;4.25;;
24619;SDS011;12763;55.802;37.404;2022-10-15T07:05:32;8.65;;;4.47;;
24619;SDS011;12763;55.802;37.404;2022-10-15T07:08:01;9.43;;;3.75;;
24619;SDS011;12763;55.802;37.404;2022-10-15T07:10:32;6.82;;;4.13;;
24619;SDS011;12763;55.802;37.404;2022-10-15T07:12:59;5.65;;;3.88;;
24619;SDS011;12763;55.802;37.404;2022-10-15T07:15:28;14.02;;;4.18;;
24619;SDS011;12763;55.802;37.404;2022-10-15T07:17:55;7.70;;;4.05;;
24619;SDS011;12763;55.802;37.404;2022-10-15T07:20:27;10.90;;;4.18;;
24619;SDS011;12763;55.802;37.404;2022-10-15T07:22:57;6.40;;;4.15;;
24619;SDS011;12763;55.802;37.404;2022-10-15T07:25:29;10.23;;;4.05;;
24619;SDS011;12763;55.802;37.404;2022-10-15T07:28:01;12.52;;;4.43;;
24619;SDS011;12763;55.802;37.404;2022-10-15T07:30:30;10.30;;;4.32;;
24619;SDS011;12763;55.802;37.404;2022-10-15T07:33:00;6.65;;;3.67;;
24619;SDS011;12763;55.802;37.404;2022-10-15T07:35:26;5.88;;;3.38;;
24619;SDS011;12763;55.802;37.404;2022-10-15T07:37:54;8.48;;;3.80;;
24619;SDS011;12763;55.802;37.404;2022-10-15T07:40:25;6.95;;;3.95;;
24619;SDS011;12763;55.802;37.404;2022-10-15T07:42:58;8.10;;;3.88;;
24619;SDS011;12763;55.802;37.404;2022-10-15T07:45:30;7.60;;;3.83;;
24619;SDS011;12763;55.802;37.404;2022-10-15T07:47:59;8.13;;;4.15;;
24619;SDS011;12763;55.802;37.404;2022-10-15T07:50:29;9.07;;;4.35;;
24619;SDS011;12763;55.802;37.404;2022-10-15T07:53:02;7.90;;;4.30;;
24619;SDS011;12763;55.802;37.404;2022-10-15T07:55:29;8.73;;;4.60;;
24619;SDS011;12763;55.802;37.404;2022-10-15T07:57:56;9.15;;;3.95;;
24619;SDS011;12763;55.802;37.404;2022-10-15T08:00:24;5.93;;;3.95;;
24619;SDS011;12763;55.802;37.404;2022-10-15T08:03:04;12.57;;;4.13;;
24619;SDS011;12763;55.802;37.404;2022-10-15T08:05:33;11.52;;;4.20;;
24619;SDS011;12763;55.802;37.404;2022-10-15T08:07:59;8.05;;;4.40;;
24619;SDS011;12763;55.802;37.404;2022-10-15T08:10:30;10.52;;;4.70;;
24619;SDS011;12763;55.802;37.404;2022-10-15T08:12:56;11.88;;;4.75;;
24619;SDS011;12763;55.802;37.404;2022-10-15T08:15:23;10.63;;;4.75;;
24619;SDS011;12763;55.802;37.404;2022-10-15T08:17:52;6.88;;;4.32;;
24619;SDS011;12763;55.802;37.404;2022-10-15T08:20:20;7.72;;;4.65;;
24619;SDS011;12763;55.802;37.404;2022-10-15T08:22:46;10.95;;;4.65;;
24619;SDS011;12763;55.802;37.404;2022-10-15T08:25:16;6.80;;;4.32;;
24619;SDS011;12763;55.802;37.404;2022-10-15T08:27:45;8.77;;;4.97;;
24619;SDS011;12763;55.802;37.404;2022-10-15T08:30:11;8.55;;;4.18;;
24619;SDS011;12763;55.802;37.404;2022-10-15T08:32:37;13.00;;;5.35;;
24619;SDS011;12763;55.802;37.404;2022-10-15T08:35:13;13.88;;;5.20;;
24619;SDS011;12763;55.802;37.404;2022-10-15T08:37:42;11.50;;;4.57;;
24619;SDS011;12763;55.802;37.404;2022-10-15T08:40:08;15.80;;;4.85;;
24619;SDS011;12763;55.802;37.404;2022-10-15T08:42:41;18.25;;;4.88;;
24619;SDS011;12763;55.802;37.404;2022-10-15T08:45:12;10.95;;;4.60;;
24619;SDS011;12763;55.802;37.404;2022-10-15T08:47:52;10.50;;;5.03;;
24619;SDS011;12763;55.802;37.404;2022-10-15T08:53:01;10.07;;;4.80;;
24619;SDS011;12763;55.802;37.404;2022-10-15T08:55:28;15.25;;;4.45;;
24619;SDS011;12763;55.802;37.404;2022-10-15T08:58:12;8.07;;;3.90;;
24619;SDS011;12763;55.802;37.404;2022-10-15T09:01:06;9.82;;;4.40;;
24619;SDS011;12763;55.802;37.404;2022-10-15T09:06:41;8.73;;;4.28;;
24619;SDS011;12763;55.802;37.404;2022-10-15T09:12:17;10.38;;;4.35;;
24619;SDS011;12763;55.802;37.404;2022-10-15T09:14:45;11.20;;;4.55;;
24619;SDS011;12763;55.802;37.404;2022-10-15T09:19:54;17.00;;;5.07;;
24619;SDS011;12763;55.802;37.404;2022-10-15T09:22:28;16.65;;;5.82;;
24619;SDS011;12763;55.802;37.404;2022-10-15T09:25:18;12.35;;;6.30;;
24619;SDS011;12763;55.802;37.404;2022-10-15T09:27:49;24.63;;;6.70;;
24619;SDS011;12763;55.802;37.404;2022-10-15T09:32:51;21.77;;;7.57;;
24619;SDS011;12763;55.802;37.404;2022-10-15T09:35:49;19.33;;;7.57;;
24619;SDS011;12763;55.802;37.404;2022-10-15T09:44:19;19.17;;;7.80;;
24619;SDS011;12763;55.802;37.404;2022-10-15T09:46:48;18.20;;;7.45;;
24619;SDS011;12763;55.802;37.404;2022-10-15T09:49:25;22.02;;;7.97;;
24619;SDS011;12763;55.802;37.404;2022-10-15T09:52:10;17.92;;;7.93;;
24619;SDS011;12763;55.802;37.404;2022-10-15T09:57:54;26.27;;;8.10;;
24619;SDS011;12763;55.802;37.404;2022-10-15T10:00:37;14.75;;;7.00;;
24619;SDS011;12763;55.802;37.404;2022-10-15T10:03:15;21.27;;;6.57;;
24619;SDS011;12763;55.802;37.404;2022-10-15T10:05:41;20.40;;;6.65;;
24619;SDS011;12763;55.802;37.404;2022-10-15T10:08:21;19.00;;;5.88;;
24619;SDS011;12763;55.802;37.404;2022-10-15T10:10:58;9.23;;;5.47;;
24619;SDS011;12763;55.802;37.404;2022-10-15T10:13:33;17.48;;;5.63;;
24619;SDS011;12763;55.802;37.404;2022-10-15T10:16:12;12.60;;;4.93;;
24619;SDS011;12763;55.802;37.404;2022-10-15T10:19:31;10.60;;;5.27;;
24619;SDS011;12763;55.802;37.404;2022-10-15T10:21:42;13.40;;;5.20;;
24619;SDS011;12763;55.802;37.404;2022-10-15T10:24:18;17.67;;;5.85;;
24619;SDS011;12763;55.802;37.404;2022-10-15T10:26:57;17.85;;;5.63;;
24619;SDS011;12763;55.802;37.404;2022-10-15T10:29:28;12.55;;;5.20;;
24619;SDS011;12763;55.802;37.404;2022-10-15T10:32:16;15.65;;;4.97;;
24619;SDS011;12763;55.802;37.404;2022-10-15T10:35:04;12.35;;;5.70;;
24619;SDS011;12763;55.802;37.404;2022-10-15T10:37:41;16.85;;;5.88;;
24619;SDS011;12763;55.802;37.404;2022-10-15T10:40:29;15.40;;;6.45;;
24619;SDS011;12763;55.802;37.404;2022-10-15T10:46:00;12.95;;;5.60;;
24619;SDS011;12763;55.802;37.404;2022-10-15T10:48:27;14.15;;;5.60;;
24619;SDS011;12763;55.802;37.404;2022-10-15T10:51:26;14.52;;;5.80;;
24619;SDS011;12763;55.802;37.404;2022-10-15T10:53:59;13.77;;;5.80;;
24619;SDS011;12763;55.802;37.404;2022-10-15T10:56:34;13.07;;;5.68;;
24619;SDS011;12763;55.802;37.404;2022-10-15T11:01:52;16.27;;;5.85;;
24619;SDS011;12763;55.802;37.404;2022-10-15T11:04:27;15.00;;;6.18;;
24619;SDS011;12763;55.802;37.404;2022-10-15T11:07:01;19.75;;;6.30;;
24619;SDS011;12763;55.802;37.404;2022-10-15T11:12:09;14.20;;;6.88;;
24619;SDS011;12763;55.802;37.404;2022-10-15T11:29:11;14.40;;;6.45;;
24619;SDS011;12763;55.802;37.404;2022-10-15T11:38:29;15.80;;;6.50;;
24619;SDS011;12763;55.802;37.404;2022-10-15T11:55:17;10.23;;;4.93;;
24619;SDS011;12763;55.802;37.404;2022-10-15T11:57:57;13.80;;;5.60;;
24619;SDS011;12763;55.802;37.404;2022-10-15T12:00:33;14.38;;;6.20;;
24619;SDS011;12763;55.802;37.404;2022-10-15T12:03:25;10.50;;;5.45;;
24619;SDS011;12763;55.802;37.404;2022-10-15T12:06:04;10.52;;;5.03;;
24619;SDS011;12763;55.802;37.404;2022-10-15T12:08:47;6.80;;;4.82;;
24619;SDS011;12763;55.802;37.404;2022-10-15T12:14:12;9.10;;;4.72;;
24619;SDS011;12763;55.802;37.404;2022-10-15T12:17:14;7.65;;;4.28;;
24619;SDS011;12763;55.802;37.404;2022-10-15T12:19:58;8.60;;;4.90;;
24619;SDS011;12763;55.802;37.404;2022-10-15T12:22:32;9.65;;;4.72;;
24619;SDS011;12763;55.802;37.404;2022-10-15T12:25:05;9.95;;;5.47;;
24619;SDS011;12763;55.802;37.404;2022-10-15T12:28:01;11.07;;;4.88;;
24619;SDS011;12763;55.802;37.404;2022-10-15T12:30:52;10.45;;;4.93;;
24619;SDS011;12763;55.802;37.404;2022-10-15T12:33:33;10.23;;;4.75;;
24619;SDS011;12763;55.802;37.404;2022-10-15T12:36:22;7.82;;;4.40;;
24619;SDS011;12763;55.802;37.404;2022-10-15T12:39:00;9.10;;;4.57;;
24619;SDS011;12763;55.802;37.404;2022-10-15T12:41:34;9.82;;;4.53;;
24619;SDS011;12763;55.802;37.404;2022-10-15T12:44:06;10.30;;;4.53;;
24619;SDS011;12763;55.802;37.404;2022-10-15T12:46:38;10.05;;;5.40;;
24619;SDS011;12763;55.802;37.404;2022-10-15T12:52:00;11.77;;;4.50;;
24619;SDS011;12763;55.802;37.404;2022-10-15T12:55:13;10.52;;;3.75;;
24619;SDS011;12763;55.802;37.404;2022-10-15T13:04:11;7.22;;;4.30;;
24619;SDS011;12763;55.802;37.404;2022-10-15T13:06:38;10.40;;;4.05;;
24619;SDS011;12763;55.802;37.404;2022-10-15T13:11:43;8.75;;;4.07;;
24619;SDS011;12763;55.802;37.404;2022-10-15T13:14:26;8.20;;;4.50;;
24619;SDS011;12763;55.802;37.404;2022-10-15T13:17:02;7.82;;;4.28;;
24619;SDS011;12763;55.802;37.404;2022-10-15T13:19:45;13.75;;;4.65;;
24619;SDS011;12763;55.802;37.404;2022-10-15T13:22:27;12.43;;;4.25;;
24619;SDS011;12763;55.802;37.404;2022-10-15T13:24:58;8.32;;;4.35;;
24619;SDS011;12763;55.802;37.404;2022-10-15T13:27:29;7.88;;;4.10;;
24619;SDS011;12763;55.802;37.404;2022-10-15T13:30:04;13.25;;;4.63;;
24619;SDS011;12763;55.802;37.404;2022-10-15T13:32:45;11.20;;;4.25;;
24619;SDS011;12763;55.802;37.404;2022-10-15T13:35:21;8.90;;;4.20;;
24619;SDS011;12763;55.802;37.404;2022-10-15T13:37:52;13.65;;;5.18;;
24619;SDS011;12763;55.802;37.404;2022-10-15T13:40:24;13.30;;;5.28;;
24619;SDS011;12763;55.802;37.404;2022-10-15T13:45:28;7.97;;;4.65;;
24619;SDS011;12763;55.802;37.404;2022-10-15T13:47:58;11.48;;;5.32;;
24619;SDS011;12763;55.802;37.404;2022-10-15T13:50:34;8.48;;;4.70;;
24619;SDS011;12763;55.802;37.404;2022-10-15T13:56:27;9.10;;;5.07;;
24619;SDS011;12763;55.802;37.404;2022-10-15T13:59:00;14.05;;;5.40;;
24619;SDS011;12763;55.802;37.404;2022-10-15T14:01:31;13.90;;;5.68;;
24619;SDS011;12763;55.802;37.404;2022-10-15T14:04:00;11.63;;;5.85;;
24619;SDS011;12763;55.802;37.404;2022-10-15T14:06:34;15.30;;;5.53;;
24619;SDS011;12763;55.802;37.404;2022-10-15T14:11:44;13.10;;;6.40;;
24619;SDS011;12763;55.802;37.404;2022-10-15T14:14:27;19.27;;;7.22;;
24619;SDS011;12763;55.802;37.404;2022-10-15T14:17:06;12.43;;;6.32;;
24619;SDS011;12763;55.802;37.404;2022-10-15T14:19:38;15.77;;;7.03;;
24619;SDS011;12763;55.802;37.404;2022-10-15T14:22:05;22.02;;;7.03;;
24619;SDS011;12763;55.802;37.404;2022-10-15T14:24:35;24.63;;;7.65;;
24619;SDS011;12763;55.802;37.404;2022-10-15T14:29:42;12.15;;;7.20;;
24619;SDS011;12763;55.802;37.404;2022-10-15T14:40:55;18.50;;;8.02;;
24619;SDS011;12763;55.802;37.404;2022-10-15T14:43:33;15.30;;;7.25;;
24619;SDS011;12763;55.802;37.404;2022-10-15T14:46:14;18.63;;;8.00;;
24619;SDS011;12763;55.802;37.404;2022-10-15T14:48:43;18.02;;;8.68;;
24619;SDS011;12763;55.802;37.404;2022-10-15T14:51:22;21.10;;;8.32;;
24619;SDS011;12763;55.802;37.404;2022-10-15T14:53:50;19.50;;;8.02;;
24619;SDS011;12763;55.802;37.404;2022-10-15T14:56:20;31.27;;;9.13;;
24619;SDS011;12763;55.802;37.404;2022-10-15T14:59:12;16.98;;;8.80;;
24619;SDS011;12763;55.802;37.404;2022-10-15T15:02:12;20.85;;;9.10;;
24619;SDS011;12763;55.802;37.404;2022-10-15T15:04:45;25.20;;;10.50;;
24619;SDS011;12763;55.802;37.404;2022-10-15T15:07:28;27.23;;;10.07;;
24619;SDS011;12763;55.802;37.404;2022-10-15T15:09:55;19.73;;;9.95;;
24619;SDS011;12763;55.802;37.404;2022-10-15T15:12:24;22.98;;;9.65;;
24619;SDS011;12763;55.802;37.404;2022-10-15T15:14:55;22.48;;;9.68;;
24619;SDS011;12763;55.802;37.404;2022-10-15T15:17:23;29.45;;;11.05;;
24619;SDS011;12763;55.802;37.404;2022-10-15T15:19:56;31.08;;;10.70;;
24619;SDS011;12763;55.802;37.404;2022-10-15T15:22:28;25.52;;;10.73;;
24619;SDS011;12763;55.802;37.404;2022-10-15T15:25:00;29.60;;;10.20;;
24619;SDS011;12763;55.802;37.404;2022-10-15T15:27:30;24.55;;;10.27;;
24619;SDS011;12763;55.802;37.404;2022-10-15T15:30:05;30.40;;;9.80;;
24619;SDS011;12763;55.802;37.404;2022-10-15T15:32:41;29.58;;;11.27;;
24619;SDS011;12763;55.802;37.404;2022-10-15T15:37:50;24.00;;;10.50;;
24619;SDS011;12763;55.802;37.404;2022-10-15T15:40:17;29.98;;;10.73;;
24619;SDS011;12763;55.802;37.404;2022-10-15T15:42:45;20.48;;;9.98;;
24619;SDS011;12763;55.802;37.404;2022-10-15T15:45:22;24.15;;;9.77;;
24619;SDS011;12763;55.802;37.404;2022-10-15T15:47:50;25.13;;;9.23;;
24619;SDS011;12763;55.802;37.404;2022-10-15T15:50:19;23.90;;;9.43;;
24619;SDS011;12763;55.802;37.404;2022-10-15T15:52:47;29.63;;;10.23;;
24619;SDS011;12763;55.802;37.404;2022-10-15T15:55:13;25.38;;;9.98;;
24619;SDS011;12763;55.802;37.404;2022-10-15T15:57:42;27.85;;;11.45;;
24619;SDS011;12763;55.802;37.404;2022-10-15T16:00:15;22.30;;;9.90;;
24619;SDS011;12763;55.802;37.404;2022-10-15T16:02:41;20.15;;;10.10;;
24619;SDS011;12763;55.802;37.404;2022-10-15T16:05:10;28.73;;;9.75;;
24619;SDS011;12763;55.802;37.404;2022-10-15T16:07:38;21.92;;;9.65;;
24619;SDS011;12763;55.802;37.404;2022-10-15T16:10:07;31.48;;;11.52;;
24619;SDS011;12763;55.802;37.404;2022-10-15T16:12:39;23.50;;;9.55;;
24619;SDS011;12763;55.802;37.404;2022-10-15T16:15:07;28.88;;;10.80;;
24619;SDS011;12763;55.802;37.404;2022-10-15T16:17:39;24.67;;;11.05;;
24619;SDS011;12763;55.802;37.404;2022-10-15T16:20:05;24.23;;;9.38;;
24619;SDS011;12763;55.802;37.404;2022-10-15T16:22:32;27.13;;;10.30;;
24619;SDS011;12763;55.802;37.404;2022-10-15T16:25:01;27.60;;;10.77;;
24619;SDS011;12763;55.802;37.404;2022-10-15T16:27:30;42.20;;;10.75;;
24619;SDS011;12763;55.802;37.404;2022-10-15T16:29:57;23.77;;;10.70;;
24619;SDS011;12763;55.802;37.404;2022-10-15T16:32:23;22.38;;;9.85;;
24619;SDS011;12763;55.802;37.404;2022-10-15T16:34:49;21.77;;;10.13;;
24619;SDS011;12763;55.802;37.404;2022-10-15T16:37:17;23.63;;;11.15;;
24619;SDS011;12763;55.802;37.404;2022-10-15T16:39:49;25.08;;;10.15;;
24619;SDS011;12763;55.802;37.404;2022-10-15T16:42:16;26.35;;;9.60;;
24619;SDS011;12763;55.802;37.404;2022-10-15T16:44:44;22.77;;;10.20;;
24619;SDS011;12763;55.802;37.404;2022-10-15T16:47:11;21.98;;;9.98;;
24619;SDS011;12763;55.802;37.404;2022-10-15T16:49:37;28.83;;;9.85;;
24619;SDS011;12763;55.802;37.404;2022-10-15T16:52:07;26.75;;;10.40;;
24619;SDS011;12763;55.802;37.404;2022-10-15T16:54:34;21.60;;;10.05;;
24619;SDS011;12763;55.802;37.404;2022-10-15T16:57:03;21.02;;;10.05;;
24619;SDS011;12763;55.802;37.404;2022-10-15T16:59:30;23.90;;;10.07;;
24619;SDS011;12763;55.802;37.404;2022-10-15T17:01:59;20.73;;;9.57;;
24619;SDS011;12763;55.802;37.404;2022-10-15T17:04:26;28.70;;;9.70;;
24619;SDS011;12763;55.802;37.404;2022-10-15T17:06:59;21.13;;;10.73;;
24619;SDS011;12763;55.802;37.404;2022-10-15T17:09:28;24.20;;;9.68;;